< < Back
Terminal Aerodrome Forecast


Current Version              Previous Versions:   1  2  3  4  5  6  7  8  9  

Terminal Aerodrome Forecast

010
FTUS42 KGSP 230500
TAFAND
TAF
KAND 230536Z 2306/2406 30004KT P6SM SCT120 BKN250
     FM231500 36004KT P6SM FEW045
     FM232100 33004KT P6SM VCSH SCT050
     FM240200 04004KT P6SM BKN060 PROB30 2402/2406 4SM TSRA
      BKN040CB=

Latest METAR

258
SAUS70 KWBC 230700 RRH
MTRAND
METAR KAND 230656Z AUTO 30003KT 10SM CLR 24/21 A2997 RMK AO2 SLP137
T02390211


USA.gov is the U.S. government's official web portal to all federal, state and local government web resources and services.